createdAt,value
2018-02-27T00:01:13.993Z,1.70
2018-02-27T00:03:43.236Z,6.37
2018-02-27T00:06:11.867Z,2.03
2018-02-27T00:08:40.137Z,2.00
2018-02-27T00:11:08.416Z,2.87
2018-02-27T00:13:36.667Z,4.20
2018-02-27T00:16:05.705Z,3.73
2018-02-27T00:18:33.966Z,2.20
2018-02-27T00:21:03.011Z,5.47
2018-02-27T00:23:31.268Z,2.23
2018-02-27T00:25:59.546Z,2.37
2018-02-27T00:28:28.568Z,1.63
2018-02-27T00:30:56.840Z,3.27
2018-02-27T00:33:25.877Z,2.60
2018-02-27T00:35:54.154Z,2.30
2018-02-27T00:38:22.410Z,2.10
2018-02-27T00:40:50.687Z,2.37
2018-02-27T00:43:18.962Z,1.97
2018-02-27T00:45:47.343Z,4.40
2018-02-27T00:48:15.609Z,2.57
2018-02-27T00:50:43.951Z,3.40
2018-02-27T00:53:12.224Z,3.27
2018-02-27T00:55:40.491Z,3.30
2018-02-27T00:58:08.748Z,3.27
2018-02-27T01:00:37.008Z,5.83
2018-02-27T01:03:05.284Z,2.67
2018-02-27T01:05:33.549Z,2.40
2018-02-27T01:08:01.843Z,2.90
2018-02-27T01:10:30.140Z,3.13
2018-02-27T01:12:58.417Z,4.83
2018-02-27T01:15:26.691Z,6.30
2018-02-27T01:17:55.740Z,3.93
2018-02-27T01:20:24.004Z,3.83
2018-02-27T01:22:52.293Z,3.93
2018-02-27T01:25:20.565Z,3.63
2018-02-27T01:27:48.841Z,3.70
2018-02-27T01:30:17.136Z,2.27
2018-02-27T01:32:46.242Z,2.80
2018-02-27T01:35:15.294Z,6.83
2018-02-27T01:37:43.629Z,2.80
2018-02-27T01:40:12.706Z,2.60
2018-02-27T01:42:40.983Z,3.73
2018-02-27T01:45:09.259Z,2.27
2018-02-27T01:47:37.545Z,2.77
2018-02-27T01:50:05.810Z,2.27
2018-02-27T01:52:34.084Z,3.77
2018-02-27T01:55:03.112Z,2.93
2018-02-27T01:57:31.397Z,2.33
2018-02-27T02:00:00.465Z,2.87
2018-02-27T02:02:28.745Z,2.13
2018-02-27T02:04:57.018Z,1.33
2018-02-27T02:07:25.296Z,2.17
2018-02-27T02:09:53.567Z,4.93
2018-02-27T02:12:21.873Z,2.20
2018-02-27T02:14:50.140Z,2.80
2018-02-27T02:17:18.409Z,4.10
2018-02-27T02:19:47.500Z,4.47
2018-02-27T02:22:15.777Z,2.50
2018-02-27T02:24:44.089Z,7.43
2018-02-27T02:27:13.164Z,2.90
2018-02-27T02:29:41.793Z,7.50
2018-02-27T02:32:10.837Z,4.00
2018-02-27T02:34:39.138Z,1.90
2018-02-27T02:37:07.455Z,2.53
2018-02-27T02:39:35.740Z,2.13
2018-02-27T02:42:24.739Z,7.67
2018-02-27T02:44:53.027Z,4.40
2018-02-27T02:47:22.819Z,4.97
2018-02-27T02:49:51.899Z,5.80
2018-02-27T02:52:20.186Z,2.53
2018-02-27T02:54:48.461Z,2.70
2018-02-27T02:57:17.520Z,4.47
2018-02-27T02:59:45.804Z,2.60
2018-02-27T03:02:14.089Z,3.10
2018-02-27T03:04:42.446Z,2.53
2018-02-27T03:07:10.762Z,2.97
2018-02-27T03:09:39.040Z,2.83
2018-02-27T03:12:07.306Z,2.67
2018-02-27T03:17:07.604Z,3.30
2018-02-27T03:19:35.897Z,2.90
2018-02-27T03:22:04.265Z,3.23
2018-02-27T03:24:32.595Z,2.73
2018-02-27T03:27:00.884Z,5.50
2018-02-27T03:29:29.166Z,2.83
2018-02-27T03:31:57.440Z,3.00
2018-02-27T03:34:25.726Z,2.83
2018-02-27T03:36:53.989Z,3.00
2018-02-27T03:39:23.037Z,2.60
2018-02-27T03:41:51.311Z,3.60
2018-02-27T03:44:19.616Z,4.40
2018-02-27T03:46:47.892Z,3.03
2018-02-27T03:49:16.185Z,3.30
2018-02-27T03:51:44.541Z,2.97
2018-02-27T03:54:13.598Z,3.13
2018-02-27T03:56:41.929Z,7.80
2018-02-27T03:59:10.209Z,2.47
2018-02-27T04:01:38.501Z,7.67
2018-02-27T04:04:06.760Z,2.97
2018-02-27T04:06:35.037Z,3.87
2018-02-27T04:09:03.316Z,2.73
2018-02-27T04:11:32.408Z,2.93
2018-02-27T04:14:00.908Z,3.73
2018-02-27T04:16:29.224Z,3.17
2018-02-27T04:18:57.498Z,2.47
2018-02-27T04:21:25.798Z,3.70
2018-02-27T04:23:54.077Z,2.60
2018-02-27T04:26:22.355Z,2.80
2018-02-27T04:28:51.387Z,2.53
2018-02-27T04:31:19.664Z,2.60
2018-02-27T04:33:47.965Z,3.77
2018-02-27T04:36:16.273Z,2.10
2018-02-27T04:38:44.565Z,3.30
2018-02-27T04:41:12.894Z,4.40
2018-02-27T04:43:41.173Z,5.47
2018-02-27T04:46:09.476Z,4.03
2018-02-27T04:48:37.797Z,3.00
2018-02-27T04:51:06.786Z,2.47
2018-02-27T04:53:35.060Z,5.53
2018-02-27T04:56:03.371Z,3.33
2018-02-27T04:58:32.413Z,3.57
2018-02-27T05:01:00.722Z,2.83
2018-02-27T05:03:28.986Z,4.00
2018-02-27T05:05:57.280Z,1.57
2018-02-27T05:08:25.571Z,3.07
2018-02-27T05:10:53.846Z,3.60
2018-02-27T05:13:22.124Z,6.13
2018-02-27T05:15:50.408Z,3.93
2018-02-27T05:18:18.677Z,3.20
2018-02-27T05:20:47.739Z,2.70
2018-02-27T05:23:16.018Z,4.43
2018-02-27T05:25:44.320Z,5.70
2018-02-27T05:28:12.649Z,3.53
2018-02-27T05:30:40.973Z,5.33
2018-02-27T05:33:09.240Z,2.73
2018-02-27T05:35:37.500Z,2.63
2018-02-27T05:38:06.562Z,2.03
2018-02-27T05:40:34.888Z,3.17
2018-02-27T05:43:03.228Z,1.80
2018-02-27T05:45:32.313Z,2.70
2018-02-27T05:48:00.665Z,3.87
2018-02-27T05:50:28.936Z,5.63
2018-02-27T05:52:57.216Z,1.97
2018-02-27T05:55:25.488Z,10.10
2018-02-27T05:57:53.771Z,2.83
2018-02-27T06:00:22.051Z,3.90
2018-02-27T06:02:50.349Z,3.63
2018-02-27T06:05:18.624Z,2.07
2018-02-27T06:07:47.844Z,2.67
2018-02-27T06:10:16.907Z,3.57
2018-02-27T06:12:45.232Z,4.13
2018-02-27T06:15:14.334Z,2.77
2018-02-27T06:17:43.572Z,2.27
2018-02-27T06:20:11.960Z,4.43
2018-02-27T06:22:40.250Z,3.83
2018-02-27T06:25:08.528Z,2.00
2018-02-27T06:27:36.824Z,3.27
2018-02-27T06:30:05.858Z,2.77
2018-02-27T06:32:34.141Z,3.40
2018-02-27T06:35:02.455Z,3.43
2018-02-27T06:37:31.626Z,5.67
2018-02-27T06:39:59.926Z,5.37
2018-02-27T06:42:28.209Z,2.80
2018-02-27T06:44:56.478Z,3.40
2018-02-27T06:47:24.778Z,2.87
2018-02-27T06:49:53.062Z,7.63
2018-02-27T06:52:21.349Z,7.67
2018-02-27T06:54:50.379Z,3.63
2018-02-27T06:57:18.688Z,7.23
2018-02-27T06:59:47.008Z,6.67
2018-02-27T07:02:15.297Z,4.17
2018-02-27T07:04:43.648Z,8.63
2018-02-27T07:07:11.955Z,4.03
2018-02-27T07:09:40.241Z,4.43
2018-02-27T07:12:08.513Z,4.97
2018-02-27T07:14:36.772Z,6.30
2018-02-27T07:17:05.070Z,5.07
2018-02-27T07:19:33.368Z,5.50
2018-02-27T07:22:01.673Z,2.90
2018-02-27T07:24:29.951Z,6.40
2018-02-27T07:26:58.209Z,5.60
2018-02-27T07:29:27.885Z,5.70
2018-02-27T07:31:56.153Z,4.33
2018-02-27T07:34:24.433Z,5.00
2018-02-27T07:36:52.715Z,4.50
2018-02-27T07:39:20.988Z,4.13
2018-02-27T07:41:50.018Z,3.40
2018-02-27T07:44:18.316Z,10.47
2018-02-27T07:46:46.599Z,3.70
2018-02-27T07:49:14.949Z,6.47
2018-02-27T07:51:43.257Z,3.50
2018-02-27T07:54:11.589Z,2.77
2018-02-27T07:56:39.918Z,4.03
2018-02-27T07:59:09.005Z,5.47
2018-02-27T08:01:37.287Z,5.27
2018-02-27T08:04:05.582Z,4.00
2018-02-27T08:06:33.882Z,5.93
2018-02-27T08:09:02.164Z,8.17
2018-02-27T08:11:31.218Z,4.10
2018-02-27T08:13:59.521Z,5.17
2018-02-27T08:16:27.802Z,3.90
2018-02-27T08:18:56.082Z,3.60
2018-02-27T08:21:25.138Z,3.53
2018-02-27T08:23:53.432Z,8.87
2018-02-27T08:26:21.698Z,4.70
2018-02-27T08:28:49.985Z,11.87
2018-02-27T08:31:18.270Z,3.77
2018-02-27T08:33:46.631Z,10.37
2018-02-27T08:36:14.874Z,9.17
2018-02-27T08:38:43.192Z,2.93
2018-02-27T08:41:12.306Z,6.00
2018-02-27T08:43:41.384Z,5.07
2018-02-27T08:46:11.434Z,7.07
2018-02-27T08:48:39.740Z,6.33
2018-02-27T08:51:08.790Z,7.20
2018-02-27T08:53:37.063Z,6.43
2018-02-27T08:56:05.332Z,6.80
2018-02-27T08:58:34.448Z,5.97
2018-02-27T09:01:03.503Z,7.73
2018-02-27T09:03:32.552Z,10.67
2018-02-27T09:06:01.622Z,6.53
2018-02-27T09:08:29.908Z,9.53
2018-02-27T09:10:58.171Z,6.93
2018-02-27T09:13:26.452Z,7.07
2018-02-27T09:15:54.720Z,6.70
2018-02-27T09:18:24.136Z,7.43
2018-02-27T09:20:54.026Z,8.93
2018-02-27T09:23:22.336Z,15.23
2018-02-27T09:25:50.602Z,12.50
2018-02-27T09:28:18.850Z,8.27
2018-02-27T09:30:47.924Z,6.43
2018-02-27T09:33:16.269Z,6.27
2018-02-27T09:35:44.717Z,10.97
2018-02-27T09:38:14.586Z,8.03
2018-02-27T09:40:42.966Z,8.13
2018-02-27T09:43:11.228Z,7.40
2018-02-27T09:45:40.305Z,6.30
2018-02-27T09:48:08.571Z,7.47
2018-02-27T09:50:36.848Z,8.37
2018-02-27T09:53:05.109Z,7.30
2018-02-27T09:55:34.822Z,7.20
2018-02-27T09:58:03.860Z,8.63
2018-02-27T10:00:32.150Z,9.47
2018-02-27T10:03:00.476Z,15.20
2018-02-27T10:05:28.761Z,9.40
2018-02-27T10:07:57.051Z,11.37
2018-02-27T10:10:25.328Z,14.70
2018-02-27T10:12:53.601Z,11.77
2018-02-27T10:15:21.916Z,7.90
2018-02-27T10:17:50.179Z,9.63
2018-02-27T10:20:18.515Z,5.37
2018-02-27T10:22:46.836Z,4.83
2018-02-27T10:25:15.234Z,4.80
2018-02-27T10:27:44.308Z,8.20
2018-02-27T10:30:12.722Z,5.57
2018-02-27T10:32:41.019Z,7.90
2018-02-27T10:35:09.311Z,10.50
2018-02-27T10:37:37.584Z,7.40
2018-02-27T10:40:06.629Z,8.00
2018-02-27T10:42:34.889Z,9.93
2018-02-27T10:45:03.932Z,7.90
2018-02-27T10:47:32.354Z,6.53
2018-02-27T10:50:01.050Z,10.73
2018-02-27T10:52:29.349Z,7.13
2018-02-27T10:54:57.687Z,10.17
2018-02-27T10:57:25.917Z,12.70
2018-02-27T10:59:54.196Z,10.80
2018-02-27T11:02:22.471Z,8.77
2018-02-27T11:04:50.808Z,5.53
2018-02-27T11:07:19.089Z,6.57
2018-02-27T11:09:47.447Z,10.40
2018-02-27T11:12:15.771Z,5.40
2018-02-27T11:14:44.149Z,9.37
2018-02-27T11:17:12.464Z,11.27
2018-02-27T11:19:40.770Z,12.93
2018-02-27T11:22:09.812Z,10.07
2018-02-27T11:24:38.075Z,6.33
2018-02-27T11:27:06.344Z,12.13
2018-02-27T11:29:35.376Z,11.77
2018-02-27T11:32:03.652Z,10.80
2018-02-27T11:34:32.720Z,10.77
2018-02-27T11:37:01.008Z,10.40
2018-02-27T11:39:29.274Z,12.50
2018-02-27T11:41:57.546Z,8.33
2018-02-27T11:44:25.802Z,5.70
2018-02-27T11:46:54.854Z,13.30
2018-02-27T11:49:23.156Z,9.23
2018-02-27T11:51:52.173Z,13.87
2018-02-27T11:54:20.440Z,9.00
2018-02-27T11:56:48.714Z,11.90
2018-02-27T11:59:17.032Z,11.53
2018-02-27T12:01:45.461Z,4.83
2018-02-27T12:04:14.566Z,10.17
2018-02-27T12:06:42.922Z,6.63
2018-02-27T12:09:11.214Z,9.90
2018-02-27T12:11:39.496Z,10.40
2018-02-27T12:14:07.789Z,7.07
2018-02-27T12:16:36.085Z,9.00
2018-02-27T12:19:04.374Z,8.87
2018-02-27T12:21:32.657Z,8.13
2018-02-27T12:24:00.949Z,8.63
2018-02-27T12:26:29.276Z,13.67
2018-02-27T12:28:57.493Z,5.23
2018-02-27T12:31:25.773Z,10.73
2018-02-27T12:33:54.808Z,12.83
2018-02-27T12:36:23.089Z,14.10
2018-02-27T12:38:51.345Z,9.70
2018-02-27T12:41:20.376Z,9.40
2018-02-27T12:43:48.632Z,9.63
2018-02-27T12:46:17.125Z,8.33
2018-02-27T12:48:45.418Z,10.90
2018-02-27T12:51:13.744Z,10.13
2018-02-27T12:53:42.017Z,12.30
2018-02-27T12:56:10.288Z,15.53
2018-02-27T12:58:39.345Z,12.73
2018-02-27T13:01:07.624Z,10.47
2018-02-27T13:03:35.880Z,9.17
2018-02-27T13:06:05.655Z,11.43
2018-02-27T13:08:33.918Z,8.60
2018-02-27T13:11:02.227Z,9.40
2018-02-27T13:13:30.539Z,9.03
2018-02-27T13:15:58.836Z,11.60
2018-02-27T13:18:27.101Z,7.57
2018-02-27T13:20:55.393Z,6.77
2018-02-27T13:23:23.665Z,10.10
2018-02-27T13:25:51.969Z,15.27
2018-02-27T13:28:20.327Z,10.07
2018-02-27T13:30:49.012Z,11.50
2018-02-27T13:33:18.796Z,16.17
2018-02-27T13:35:47.088Z,7.10
2018-02-27T13:38:15.549Z,11.30
2018-02-27T13:40:44.026Z,10.13
2018-02-27T13:43:12.841Z,6.77
2018-02-27T13:45:41.392Z,11.73
2018-02-27T13:48:09.769Z,13.93
2018-02-27T13:50:39.267Z,12.20
2018-02-27T13:53:07.854Z,7.60
2018-02-27T13:55:36.370Z,15.40
2018-02-27T13:58:04.704Z,8.47
2018-02-27T14:00:33.724Z,7.63
2018-02-27T14:03:02.030Z,11.33
2018-02-27T14:05:30.418Z,16.67
2018-02-27T14:07:58.799Z,14.07
2018-02-27T14:10:27.060Z,15.17
2018-02-27T14:12:56.112Z,14.13
2018-02-27T14:15:24.471Z,7.07
2018-02-27T14:17:53.508Z,12.90
2018-02-27T14:20:22.110Z,10.77
2018-02-27T14:22:50.382Z,13.00
2018-02-27T14:25:18.849Z,14.07
2018-02-27T14:27:48.236Z,8.00
2018-02-27T14:30:16.557Z,8.97
2018-02-27T14:32:45.897Z,15.00
2018-02-27T14:35:15.117Z,7.63
2018-02-27T14:37:43.630Z,12.47
2018-02-27T14:40:12.120Z,11.37
2018-02-27T14:42:40.416Z,9.10
2018-02-27T14:45:08.671Z,9.77
2018-02-27T14:47:36.983Z,9.57
2018-02-27T14:50:05.242Z,11.20
2018-02-27T14:52:34.326Z,11.07
2018-02-27T14:55:03.405Z,9.90
2018-02-27T14:57:31.684Z,10.93
2018-02-27T14:59:59.984Z,9.87
2018-02-27T15:02:29.045Z,6.63
2018-02-27T15:04:58.068Z,12.33
2018-02-27T15:07:26.363Z,9.13
2018-02-27T15:09:54.612Z,8.33
2018-02-27T15:12:23.660Z,9.93
2018-02-27T15:14:51.937Z,12.13
2018-02-27T15:17:20.240Z,10.63
2018-02-27T15:19:48.504Z,10.30
2018-02-27T15:22:17.645Z,10.13
2018-02-27T15:24:45.992Z,13.70
2018-02-27T15:27:15.087Z,12.73
2018-02-27T15:29:43.485Z,10.97
2018-02-27T15:32:12.644Z,15.47
2018-02-27T15:34:41.009Z,10.83
2018-02-27T15:37:09.319Z,13.60
2018-02-27T15:39:37.604Z,6.87
2018-02-27T15:42:05.884Z,12.37
2018-02-27T15:44:34.157Z,6.93
2018-02-27T15:47:03.191Z,14.50
2018-02-27T15:49:31.469Z,7.07
2018-02-27T15:51:59.734Z,14.10
2018-02-27T15:54:28.802Z,9.40
2018-02-27T15:56:57.087Z,5.57
2018-02-27T15:59:25.398Z,10.70
2018-02-27T16:01:53.656Z,10.23
2018-02-27T16:04:21.968Z,9.27
2018-02-27T16:06:51.004Z,8.50
2018-02-27T16:09:20.057Z,7.47
2018-02-27T16:11:48.332Z,12.97
2018-02-27T16:14:16.726Z,11.50
2018-02-27T16:16:45.059Z,17.83
2018-02-27T16:19:14.212Z,11.17
2018-02-27T16:21:42.583Z,12.43
2018-02-27T16:24:12.324Z,7.57
2018-02-27T16:26:40.623Z,12.83
2018-02-27T16:29:08.974Z,10.07
2018-02-27T16:31:38.016Z,13.80
2018-02-27T16:34:06.298Z,12.37
2018-02-27T16:36:34.590Z,11.60
2018-02-27T16:39:02.901Z,8.73
2018-02-27T16:41:31.177Z,8.93
2018-02-27T16:43:59.473Z,15.37
2018-02-27T16:46:27.788Z,10.03
2018-02-27T16:48:56.087Z,12.37
2018-02-27T16:51:24.362Z,9.03
2018-02-27T16:53:52.660Z,10.53
2018-02-27T16:56:20.960Z,15.40
2018-02-27T16:58:49.244Z,14.20
2018-02-27T17:01:17.532Z,8.47
2018-02-27T17:03:45.876Z,9.43
2018-02-27T17:06:14.986Z,16.53
2018-02-27T17:08:43.350Z,13.80
2018-02-27T17:11:11.645Z,7.93
2018-02-27T17:13:40.740Z,10.47
2018-02-27T17:16:09.057Z,7.50
2018-02-27T17:18:37.342Z,9.03
2018-02-27T17:21:06.383Z,10.33
2018-02-27T17:23:34.664Z,8.07
2018-02-27T17:26:04.110Z,11.37
2018-02-27T17:28:32.383Z,11.23
2018-02-27T17:31:00.720Z,10.73
2018-02-27T17:33:29.821Z,13.17
2018-02-27T17:35:58.953Z,9.90
2018-02-27T17:38:27.272Z,15.27
2018-02-27T17:40:55.548Z,7.03
2018-02-27T17:43:23.809Z,10.47
2018-02-27T17:45:52.868Z,12.90
2018-02-27T17:48:21.136Z,12.50
2018-02-27T17:50:49.432Z,12.53
2018-02-27T17:53:17.711Z,11.47
2018-02-27T17:55:47.758Z,14.87
2018-02-27T17:58:16.552Z,9.70
2018-02-27T18:00:44.850Z,13.03
2018-02-27T18:03:13.801Z,13.47
2018-02-27T18:05:42.110Z,10.10
2018-02-27T18:08:11.456Z,6.63
2018-02-27T18:10:39.735Z,9.40
2018-02-27T18:13:08.005Z,8.27
2018-02-27T18:15:37.054Z,11.07
2018-02-27T18:18:05.328Z,7.83
2018-02-27T18:20:33.621Z,13.57
2018-02-27T18:23:02.681Z,9.93
2018-02-27T18:25:33.565Z,12.07
2018-02-27T18:28:01.857Z,6.70
2018-02-27T18:30:32.187Z,7.73
2018-02-27T18:33:00.561Z,9.33
2018-02-27T18:35:31.612Z,9.60
2018-02-27T18:37:59.909Z,15.53
2018-02-27T18:40:28.972Z,10.80
2018-02-27T18:42:57.248Z,9.90
2018-02-27T18:45:25.525Z,9.20
2018-02-27T18:47:53.757Z,6.30
2018-02-27T18:50:22.069Z,7.73
2018-02-27T18:52:51.123Z,11.23
2018-02-27T18:55:19.393Z,8.50
2018-02-27T18:57:47.665Z,8.23
2018-02-27T19:00:15.975Z,11.53
2018-02-27T19:02:45.044Z,7.17
2018-02-27T19:05:13.347Z,7.87
2018-02-27T19:07:41.686Z,8.97
2018-02-27T19:10:10.024Z,8.93
2018-02-27T19:12:40.007Z,9.17
2018-02-27T19:15:08.450Z,12.10
2018-02-27T19:17:36.982Z,8.57
2018-02-27T19:20:06.093Z,10.70
2018-02-27T19:22:34.544Z,12.00
2018-02-27T19:25:04.617Z,10.20
2018-02-27T19:27:33.342Z,12.23
2018-02-27T19:30:01.926Z,26.23
2018-02-27T19:32:31.029Z,11.40
2018-02-27T19:34:59.573Z,7.97
2018-02-27T19:37:28.722Z,11.60
2018-02-27T19:39:57.138Z,10.80
2018-02-27T19:42:25.851Z,11.10
2018-02-27T19:44:54.651Z,7.63
2018-02-27T19:47:23.133Z,12.27
2018-02-27T19:49:51.461Z,9.53
2018-02-27T19:52:20.512Z,13.10
2018-02-27T19:54:48.930Z,6.97
2018-02-27T19:57:17.297Z,13.20
2018-02-27T19:59:45.620Z,12.37
2018-02-27T20:02:14.795Z,8.23
2018-02-27T20:04:43.133Z,10.67
2018-02-27T20:07:12.243Z,10.83
2018-02-27T20:09:41.391Z,8.03
2018-02-27T20:12:09.743Z,7.60
2018-02-27T20:14:38.785Z,6.93
2018-02-27T20:17:07.169Z,10.07
2018-02-27T20:19:35.415Z,7.83
2018-02-27T20:22:03.785Z,17.67
2018-02-27T20:24:32.146Z,7.27
2018-02-27T20:27:00.608Z,15.27
2018-02-27T20:29:30.267Z,6.80
2018-02-27T20:31:58.573Z,10.03
2018-02-27T20:34:33.680Z,12.73
2018-02-27T20:37:01.984Z,8.27
2018-02-27T20:39:30.446Z,10.07
2018-02-27T20:41:58.921Z,8.33
2018-02-27T20:44:27.212Z,10.17
2018-02-27T20:46:55.502Z,6.37
2018-02-27T20:49:23.755Z,9.37
2018-02-27T20:51:52.063Z,7.97
2018-02-27T20:54:21.104Z,8.27
2018-02-27T20:56:50.217Z,5.70
2018-02-27T20:59:19.990Z,11.10
2018-02-27T21:01:48.467Z,9.23
2018-02-27T21:04:16.761Z,12.90
2018-02-27T21:06:45.181Z,6.00
2018-02-27T21:09:13.626Z,8.20
2018-02-27T21:11:42.104Z,6.13
2018-02-27T21:14:11.141Z,6.23
2018-02-27T21:16:39.431Z,7.87
2018-02-27T21:19:08.509Z,6.27
2018-02-27T21:21:37.561Z,6.37
2018-02-27T21:24:05.844Z,6.80
2018-02-27T21:26:34.146Z,12.17
2018-02-27T21:29:02.535Z,10.33
2018-02-27T21:31:30.801Z,8.30
2018-02-27T21:33:59.076Z,8.73
2018-02-27T21:36:28.136Z,10.57
2018-02-27T21:38:56.474Z,10.70
2018-02-27T21:41:25.894Z,5.07
2018-02-27T21:43:54.948Z,7.77
2018-02-27T21:46:23.248Z,7.37
2018-02-27T21:48:51.499Z,10.40
2018-02-27T21:51:19.785Z,8.07
2018-02-27T21:53:48.100Z,10.90
2018-02-27T21:56:16.415Z,6.90
2018-02-27T21:58:45.514Z,6.37
2018-02-27T22:01:13.840Z,10.03
2018-02-27T22:03:42.207Z,6.63
2018-02-27T22:06:10.464Z,10.77
2018-02-27T22:08:38.775Z,7.57
2018-02-27T22:11:07.053Z,5.17
2018-02-27T22:13:35.341Z,9.20
2018-02-27T22:16:03.665Z,7.40
2018-02-27T22:18:32.842Z,8.33
2018-02-27T22:21:01.117Z,5.53
2018-02-27T22:23:29.405Z,7.57
2018-02-27T22:25:57.671Z,7.07
2018-02-27T22:28:25.986Z,4.87
2018-02-27T22:30:54.258Z,9.93
2018-02-27T22:33:22.565Z,12.37
2018-02-27T22:35:50.938Z,11.83
2018-02-27T22:38:19.224Z,8.17
2018-02-27T22:40:47.557Z,11.87
2018-02-27T22:43:15.868Z,6.20
2018-02-27T22:45:44.964Z,5.17
2018-02-27T22:48:13.303Z,7.13
2018-02-27T22:50:41.663Z,8.43
2018-02-27T22:53:10.730Z,4.87
2018-02-27T22:55:39.020Z,7.37
2018-02-27T22:58:07.337Z,6.80
2018-02-27T23:00:44.504Z,9.33
2018-02-27T23:03:12.923Z,4.57
2018-02-27T23:05:42.633Z,6.63
2018-02-27T23:08:10.963Z,5.67
2018-02-27T23:10:40.090Z,6.73
2018-02-27T23:13:08.367Z,4.43
2018-02-27T23:15:37.426Z,4.37
2018-02-27T23:18:05.713Z,5.43
2018-02-27T23:20:34.000Z,8.37
2018-02-27T23:23:02.326Z,5.23
2018-02-27T23:25:34.089Z,10.93
2018-02-27T23:28:03.785Z,6.77
2018-02-27T23:30:32.195Z,8.63
2018-02-27T23:33:00.913Z,10.67
2018-02-27T23:35:29.991Z,9.20
2018-02-27T23:40:25.329Z,6.83
2018-02-27T23:42:53.616Z,4.97
2018-02-27T23:45:21.914Z,4.03
2018-02-27T23:47:50.177Z,4.23
2018-02-27T23:50:18.472Z,4.63
2018-02-27T23:52:46.767Z,11.33
2018-02-27T23:55:15.109Z,9.17
2018-02-27T23:57:43.432Z,7.03
